Randleman, North Carolina
Current Conditions -  °F | °C
As of 5:15 AM on Tuesday 27 Jan 2015 (Local Time) from KHBI Reporting Station
Clear Clear  
Wind Chill: 26°   Ceiling: Unl
Heat Index: 31°   Visibility: 10mi
Dew Point: 19°   Wind: 5mph
Humidity: 62%   Direction: 330°NNW
Pressure: 29.79"   Gusts: NA
Location:  35.82°N, 79.8°W
Report Text: KHBI 271015Z AUTO 33004KT 10SM CLR M01/M07 A2979 RMK AO2 T10061070
Loading
Personal Weather Stations






























Interactive Weather Map New forecast layout! Learn more

10-Day Weather Forecast

Advertisements
Track Severe Weather on mobile